Terminal Aerodrome Forecast
Issued by NWS

Home | Current Version | Previous Version | Text Only | Print | Product List | Glossary On
Versions: 1 2 3 4 5 6 7 8 9 10 11 12 13 14 15 16 17 18 19 20 21 22 23 24 25 26 27 28 29 30 31 32 33 34 35
000
FTUS41 KRNK 280932 AAA
TAFLWB
TAF AMD
KLWB 280932Z 2810/2906 00000KT P6SM -SHRA SCT045 OVC080
      TEMPO 2810/2812 2SM -SHRA BR OVC025
     FM281200 VRB03KT 5SM BR VCSH BKN050
     FM281500 22004KT P6SM BKN040
     FM281800 26007KT P6SM BKN050
     FM281900 26010KT P6SM BKN050
     FM290000 29004KT P6SM SCT035=

USA.gov is the U.S. government's official web portal to all federal, state and local government web resources and services.